createdAt,value
2023-11-01T00:00:19.789Z,8.32
2023-11-01T00:02:46.379Z,8.24
2023-11-01T00:05:12.824Z,8.18
2023-11-01T00:07:39.371Z,8.21
2023-11-01T00:10:06.652Z,8.22
2023-11-01T00:12:33.563Z,8.22
2023-11-01T00:15:00.240Z,8.22
2023-11-01T00:17:26.761Z,8.27
2023-11-01T00:19:53.350Z,8.26
2023-11-01T00:22:22.222Z,8.27
2023-11-01T00:24:48.694Z,8.24
2023-11-01T00:27:15.093Z,8.17
2023-11-01T00:29:42.023Z,8.23
2023-11-01T00:32:08.609Z,8.23
2023-11-01T00:34:35.179Z,8.24
2023-11-01T00:37:01.726Z,8.23
2023-11-01T00:39:28.171Z,8.25
2023-11-01T00:41:54.782Z,8.22
2023-11-01T00:44:21.229Z,8.36
2023-11-01T00:46:48.486Z,8.26
2023-11-01T00:49:14.987Z,8.29
2023-11-01T00:51:41.736Z,8.31
2023-11-01T00:54:08.501Z,8.38
2023-11-01T00:56:35.137Z,8.40
2023-11-01T00:59:01.864Z,8.39
2023-11-01T01:01:28.434Z,8.37
2023-11-01T01:03:55.013Z,8.26
2023-11-01T01:06:21.838Z,8.20
2023-11-01T01:08:48.377Z,8.18
2023-11-01T01:11:14.976Z,8.16
2023-11-01T01:13:41.766Z,8.17
2023-11-01T01:16:08.474Z,8.15
2023-11-01T01:18:34.863Z,8.22
2023-11-01T01:21:01.435Z,8.18
2023-11-01T01:23:28.409Z,8.06
2023-11-01T01:25:54.833Z,8.07
2023-11-01T01:28:21.330Z,7.93
2023-11-01T01:30:47.768Z,8.05
2023-11-01T01:33:14.178Z,7.95
2023-11-01T01:35:40.710Z,7.98
2023-11-01T01:38:07.187Z,8.05
2023-11-01T01:40:34.009Z,8.00
2023-11-01T01:43:10.813Z,8.14
2023-11-01T01:45:37.364Z,8.08
2023-11-01T01:48:04.263Z,8.05
2023-11-01T01:50:30.866Z,7.95
2023-11-01T01:52:58.444Z,7.89
2023-11-01T01:55:24.865Z,7.87
2023-11-01T01:57:51.421Z,7.82
2023-11-01T02:00:19.059Z,7.80
2023-11-01T02:02:46.184Z,7.80
2023-11-01T02:05:12.786Z,7.75
2023-11-01T02:07:39.311Z,7.72
2023-11-01T02:10:06.408Z,7.65
2023-11-01T02:12:33.156Z,7.65
2023-11-01T02:14:59.669Z,7.68
2023-11-01T02:17:26.175Z,7.64
2023-11-01T02:19:52.638Z,7.60
2023-11-01T02:22:19.384Z,7.59
2023-11-01T02:24:47.894Z,7.58
2023-11-01T02:27:14.275Z,7.59
2023-11-01T02:29:41.057Z,7.52
2023-11-01T02:32:08.867Z,7.48
2023-11-01T02:34:35.712Z,7.56
2023-11-01T02:37:02.172Z,7.55
2023-11-01T02:39:28.921Z,7.64
2023-11-01T02:41:55.502Z,7.62
2023-11-01T02:44:22.519Z,7.59
2023-11-01T02:46:48.962Z,7.52
2023-11-01T02:49:15.525Z,7.54
2023-11-01T02:51:42.049Z,7.46
2023-11-01T02:54:08.597Z,7.42
2023-11-01T02:56:35.058Z,7.41
2023-11-01T02:59:04.960Z,7.43
2023-11-01T03:01:31.417Z,7.47
2023-11-01T03:03:58.030Z,7.43
2023-11-01T03:06:24.588Z,7.34
2023-11-01T03:08:51.180Z,7.30
2023-11-01T03:11:18.146Z,7.36
2023-11-01T03:13:44.603Z,7.36
2023-11-01T03:16:13.499Z,7.33
2023-11-01T03:18:42.009Z,7.34
2023-11-01T03:21:08.462Z,7.42
2023-11-01T03:23:34.963Z,7.25
2023-11-01T03:26:02.403Z,7.25
2023-11-01T03:28:28.958Z,7.21
2023-11-01T03:30:55.403Z,7.24
2023-11-01T03:33:24.310Z,7.21
2023-11-01T03:35:50.997Z,7.17
2023-11-01T03:38:17.431Z,7.18
2023-11-01T03:40:43.863Z,7.16
2023-11-01T03:43:10.342Z,7.18
2023-11-01T03:45:37.826Z,7.16
2023-11-01T03:48:04.651Z,7.21
2023-11-01T03:50:31.264Z,7.22
2023-11-01T03:52:57.720Z,7.23
2023-11-01T03:55:24.200Z,7.17
2023-11-01T03:57:52.683Z,7.15
2023-11-01T04:00:19.194Z,7.04
2023-11-01T04:02:45.863Z,7.02
2023-11-01T04:05:12.596Z,7.11
2023-11-01T04:07:39.375Z,7.10
2023-11-01T04:10:06.246Z,7.05
2023-11-01T04:12:32.587Z,7.01
2023-11-01T04:14:58.965Z,6.95
2023-11-01T04:17:25.465Z,6.96
2023-11-01T04:19:51.874Z,6.89
2023-11-01T04:22:18.415Z,6.84
2023-11-01T04:24:52.461Z,6.79
2023-11-01T04:27:18.987Z,6.77
2023-11-01T04:29:45.466Z,6.78
2023-11-01T04:32:11.902Z,6.71
2023-11-01T04:34:38.315Z,6.69
2023-11-01T04:37:05.452Z,6.63
2023-11-01T04:39:34.330Z,6.59
2023-11-01T04:42:03.092Z,6.59
2023-11-01T04:44:29.700Z,6.55
2023-11-01T04:46:56.331Z,6.52
2023-11-01T04:49:22.956Z,6.54
2023-11-01T04:51:52.154Z,6.47
2023-11-01T04:54:18.843Z,6.46
2023-11-01T04:56:45.272Z,6.42
2023-11-01T04:59:11.668Z,6.36
2023-11-01T05:01:38.155Z,6.41
2023-11-01T05:04:05.135Z,6.33
2023-11-01T05:06:31.624Z,6.31
2023-11-01T05:08:58.240Z,6.23
2023-11-01T05:11:24.707Z,6.20
2023-11-01T05:13:51.239Z,6.18
2023-11-01T05:16:17.893Z,6.23
2023-11-01T05:18:47.602Z,6.24
2023-11-01T05:21:14.332Z,6.19
2023-11-01T05:23:40.812Z,6.19
2023-11-01T05:26:07.604Z,6.23
2023-11-01T05:28:34.008Z,6.16
2023-11-01T05:31:01.105Z,6.10
2023-11-01T05:33:27.653Z,6.12
2023-11-01T05:35:55.426Z,6.07
2023-11-01T05:38:22.477Z,6.13
2023-11-01T05:40:48.839Z,6.12
2023-11-01T05:43:15.546Z,6.19
2023-11-01T05:45:42.237Z,6.14
2023-11-01T05:48:09.755Z,6.15
2023-11-01T05:50:36.842Z,6.03
2023-11-01T05:53:04.360Z,5.98
2023-11-01T05:55:42.242Z,5.95
2023-11-01T05:58:15.564Z,5.94
2023-11-01T06:00:42.285Z,5.95
2023-11-01T06:03:08.871Z,5.96
2023-11-01T06:05:38.697Z,6.07
2023-11-01T06:08:05.934Z,5.98
2023-11-01T06:10:32.808Z,5.97
2023-11-01T06:12:59.810Z,5.98
2023-11-01T06:15:26.241Z,5.87
2023-11-01T06:17:52.768Z,5.88
2023-11-01T06:20:19.390Z,5.81
2023-11-01T06:22:46.341Z,5.94
2023-11-01T06:25:16.058Z,5.92
2023-11-01T06:27:42.511Z,5.89
2023-11-01T06:30:09.605Z,5.85
2023-11-01T06:32:36.327Z,5.99
2023-11-01T06:35:03.134Z,6.09
2023-11-01T06:37:29.910Z,5.94
2023-11-01T06:39:57.851Z,5.91
2023-11-01T06:42:24.622Z,6.12
2023-11-01T06:44:51.428Z,6.14
2023-11-01T06:47:18.452Z,6.24
2023-11-01T06:49:45.297Z,6.35
2023-11-01T06:52:12.275Z,6.47
2023-11-01T06:54:41.826Z,6.58
2023-11-01T06:57:08.549Z,6.67
2023-11-01T06:59:35.078Z,6.65
2023-11-01T07:02:01.528Z,6.71
2023-11-01T07:04:28.024Z,6.71
2023-11-01T07:06:54.595Z,6.68
2023-11-01T07:09:21.359Z,6.59
2023-11-01T07:11:48.163Z,6.65
2023-11-01T07:14:14.914Z,6.63
2023-11-01T07:16:41.634Z,6.63
2023-11-01T07:19:08.487Z,6.63
2023-11-01T07:21:35.065Z,6.67
2023-11-01T07:24:02.869Z,6.81
2023-11-01T07:26:29.390Z,7.00
2023-11-01T07:28:55.818Z,7.01
2023-11-01T07:31:22.741Z,7.06
2023-11-01T07:33:49.662Z,7.16
2023-11-01T07:36:16.367Z,7.26
2023-11-01T07:38:44.233Z,7.26
2023-11-01T07:41:11.953Z,7.31
2023-11-01T07:43:41.624Z,7.43
2023-11-01T07:46:09.206Z,7.56
2023-11-01T07:48:36.625Z,7.64
2023-11-01T07:51:07.513Z,7.83
2023-11-01T07:53:34.556Z,8.00
2023-11-01T07:56:01.973Z,8.05
2023-11-01T07:58:28.402Z,8.25
2023-11-01T08:00:54.896Z,8.36
2023-11-01T08:03:21.826Z,8.32
2023-11-01T08:05:48.561Z,8.57
2023-11-01T08:08:15.096Z,8.69
2023-11-01T08:10:41.909Z,8.64
2023-11-01T08:13:10.285Z,8.79
2023-11-01T08:15:37.712Z,8.91
2023-11-01T08:18:04.343Z,9.21
2023-11-01T08:20:31.169Z,9.34
2023-11-01T08:22:58.275Z,9.48
2023-11-01T08:25:27.866Z,9.67
2023-11-01T08:27:54.233Z,9.71
2023-11-01T08:30:21.064Z,9.74
2023-11-01T08:32:47.817Z,9.68
2023-11-01T08:35:14.746Z,10.00
2023-11-01T08:37:41.551Z,9.98
2023-11-01T08:40:08.791Z,10.26
2023-11-01T08:42:36.417Z,10.30
2023-11-01T08:45:03.333Z,10.27
2023-11-01T08:47:40.673Z,10.74
2023-11-01T08:50:08.925Z,10.93
2023-11-01T08:52:35.530Z,11.21
2023-11-01T08:55:03.882Z,11.40
2023-11-01T08:57:30.718Z,11.34
2023-11-01T08:59:57.144Z,11.51
2023-11-01T09:02:23.748Z,11.64
2023-11-01T09:04:50.534Z,11.87
2023-11-01T09:07:17.095Z,11.95
2023-11-01T09:09:43.887Z,12.14
2023-11-01T09:12:10.647Z,12.34
2023-11-01T09:14:38.277Z,12.42
2023-11-01T09:17:05.155Z,12.51
2023-11-01T09:19:32.255Z,12.63
2023-11-01T09:21:58.996Z,12.68
2023-11-01T09:24:26.941Z,13.10
2023-11-01T09:26:53.782Z,13.01
2023-11-01T09:29:20.359Z,13.08
2023-11-01T09:31:47.133Z,13.15
2023-11-01T09:34:13.723Z,13.15
2023-11-01T09:36:40.982Z,13.25
2023-11-01T09:39:08.053Z,13.26
2023-11-01T09:41:45.808Z,13.63
2023-11-01T09:44:16.937Z,13.96
2023-11-01T09:46:44.534Z,14.16
2023-11-01T09:49:12.589Z,14.53
2023-11-01T09:51:39.285Z,14.63
2023-11-01T09:54:06.319Z,14.43
2023-11-01T09:56:34.158Z,14.52
2023-11-01T09:59:04.017Z,14.36
2023-11-01T10:01:30.723Z,14.26
2023-11-01T10:03:58.330Z,14.30
2023-11-01T10:06:27.690Z,14.82
2023-11-01T10:08:54.759Z,14.89
2023-11-01T10:11:23.650Z,15.11
2023-11-01T10:13:51.006Z,14.83
2023-11-01T10:16:17.734Z,15.02
2023-11-01T10:18:44.482Z,15.22
2023-11-01T10:21:11.519Z,15.45
2023-11-01T10:23:41.508Z,15.35
2023-11-01T10:26:08.265Z,15.34
2023-11-01T10:28:43.000Z,15.50
2023-11-01T10:31:13.204Z,15.39
2023-11-01T10:33:40.388Z,15.18
2023-11-01T10:36:07.310Z,15.64
2023-11-01T10:38:35.304Z,15.64
2023-11-01T10:41:03.079Z,15.66
2023-11-01T10:43:33.414Z,15.70
2023-11-01T10:46:02.452Z,15.65
2023-11-01T10:48:30.296Z,15.63
2023-11-01T10:50:58.701Z,15.75
2023-11-01T10:53:26.008Z,15.94
2023-11-01T10:55:53.851Z,16.01
2023-11-01T10:58:25.186Z,16.13
2023-11-01T11:01:21.856Z,16.06
2023-11-01T11:03:56.965Z,16.13
2023-11-01T11:06:34.231Z,15.98
2023-11-01T11:09:20.286Z,15.69
2023-11-01T11:12:16.778Z,15.72
2023-11-01T11:14:48.162Z,16.00
2023-11-01T11:17:16.913Z,16.25
2023-11-01T11:20:12.708Z,16.02
2023-11-01T11:22:58.298Z,16.28
2023-11-01T11:25:39.961Z,16.22
2023-11-01T11:28:07.241Z,16.31
2023-11-01T11:30:46.871Z,16.39
2023-11-01T11:33:14.274Z,16.28
2023-11-01T11:35:41.282Z,15.99
2023-11-01T11:38:33.692Z,15.49
2023-11-01T11:41:26.080Z,15.54
2023-11-01T11:44:15.230Z,15.60
2023-11-01T11:46:50.179Z,15.66
2023-11-01T11:49:29.103Z,15.69
2023-11-01T11:51:56.904Z,15.77
2023-11-01T11:54:26.064Z,15.97
2023-11-01T11:56:57.613Z,15.83
2023-11-01T11:59:28.515Z,15.98
2023-11-01T12:01:57.500Z,16.25
2023-11-01T12:04:33.238Z,16.63
2023-11-01T12:07:00.097Z,16.59
2023-11-01T12:09:27.756Z,16.99
2023-11-01T12:11:56.309Z,16.81
2023-11-01T12:14:28.265Z,17.04
2023-11-01T12:16:56.558Z,17.01
2023-11-01T12:19:25.298Z,17.23
2023-11-01T12:21:56.826Z,17.44
2023-11-01T12:24:27.773Z,17.25
2023-11-01T12:27:04.899Z,17.69
2023-11-01T12:29:40.455Z,17.22
2023-11-01T12:32:15.239Z,17.38
2023-11-01T12:34:50.677Z,17.25
2023-11-01T12:37:24.688Z,17.12
2023-11-01T12:40:17.627Z,17.35
2023-11-01T12:42:50.735Z,16.92
2023-11-01T12:45:19.343Z,16.58
2023-11-01T12:47:50.064Z,16.24
2023-11-01T12:50:25.487Z,16.10
2023-11-01T12:52:53.208Z,16.00
2023-11-01T12:55:23.552Z,15.99
2023-11-01T12:57:54.368Z,16.07
2023-11-01T13:00:23.162Z,16.10
2023-11-01T13:02:50.345Z,16.12
2023-11-01T13:05:18.347Z,16.01
2023-11-01T13:07:45.148Z,16.08
2023-11-01T13:10:12.180Z,16.20
2023-11-01T13:12:41.224Z,16.17
2023-11-01T13:15:08.992Z,16.09
2023-11-01T13:17:35.764Z,15.96
2023-11-01T13:20:02.411Z,15.82
2023-11-01T13:22:28.917Z,15.90
2023-11-01T13:24:55.363Z,15.91
2023-11-01T13:27:21.982Z,15.97
2023-11-01T13:29:48.573Z,15.83
2023-11-01T13:32:16.651Z,15.63
2023-11-01T13:34:46.171Z,15.48
2023-11-01T13:37:12.728Z,15.40
2023-11-01T13:39:39.461Z,15.51
2023-11-01T13:42:08.489Z,15.33
2023-11-01T13:44:35.401Z,15.25
2023-11-01T13:47:02.070Z,15.18
2023-11-01T13:49:28.456Z,15.27
2023-11-01T13:51:54.929Z,15.24
2023-11-01T13:54:24.474Z,15.15
2023-11-01T13:56:50.988Z,15.11
2023-11-01T13:59:17.505Z,15.07
2023-11-01T14:01:44.159Z,15.12
2023-11-01T14:04:10.808Z,15.20
2023-11-01T14:06:37.477Z,15.09
2023-11-01T14:09:04.387Z,14.94
2023-11-01T14:11:31.061Z,14.85
2023-11-01T14:13:57.574Z,14.82
2023-11-01T14:16:24.173Z,14.73
2023-11-01T14:18:50.891Z,14.64
2023-11-01T14:21:17.350Z,14.58
2023-11-01T14:23:43.953Z,14.48
2023-11-01T14:26:10.718Z,14.49
2023-11-01T14:28:37.544Z,14.49
2023-11-01T14:31:04.521Z,14.45
2023-11-01T14:33:31.461Z,14.44
2023-11-01T14:35:58.462Z,14.40
2023-11-01T14:38:25.213Z,14.40
2023-11-01T14:40:52.121Z,14.35
2023-11-01T14:43:18.929Z,14.31
2023-11-01T14:45:45.898Z,14.27
2023-11-01T14:48:12.506Z,14.27
2023-11-01T14:50:39.899Z,14.26
2023-11-01T14:53:06.718Z,14.22
2023-11-01T14:55:33.432Z,14.12
2023-11-01T14:58:00.964Z,14.05
2023-11-01T15:00:27.490Z,14.03
2023-11-01T15:02:54.256Z,13.96
2023-11-01T15:05:21.051Z,13.89
2023-11-01T15:07:47.826Z,13.86
2023-11-01T15:10:14.619Z,13.85
2023-11-01T15:12:41.220Z,13.75
2023-11-01T15:15:08.361Z,13.74
2023-11-01T15:17:35.231Z,13.68
2023-11-01T15:20:02.141Z,13.61
2023-11-01T15:22:28.685Z,13.54
2023-11-01T15:24:55.249Z,13.46
2023-11-01T15:27:22.262Z,13.45
2023-11-01T15:29:49.202Z,13.36
2023-11-01T15:32:16.039Z,13.35
2023-11-01T15:34:43.571Z,13.32
2023-11-01T15:37:10.387Z,13.37
2023-11-01T15:39:38.803Z,13.44
2023-11-01T15:42:07.514Z,13.33
2023-11-01T15:44:34.183Z,13.23
2023-11-01T15:47:01.233Z,13.13
2023-11-01T15:49:28.128Z,13.09
2023-11-01T15:51:54.794Z,12.92
2023-11-01T15:54:23.862Z,12.95
2023-11-01T15:56:51.583Z,12.84
2023-11-01T15:59:19.190Z,12.67
2023-11-01T16:01:51.673Z,12.79
2023-11-01T16:04:18.727Z,12.65
2023-11-01T16:06:47.070Z,12.46
2023-11-01T16:09:14.417Z,12.45
2023-11-01T16:11:42.530Z,12.57
2023-11-01T16:14:10.179Z,12.56
2023-11-01T16:16:36.783Z,12.44
2023-11-01T16:19:03.931Z,12.33
2023-11-01T16:21:30.556Z,12.27
2023-11-01T16:23:59.353Z,12.15
2023-11-01T16:26:28.538Z,12.09
2023-11-01T16:28:56.087Z,12.00
2023-11-01T16:31:23.221Z,11.85
2023-11-01T16:33:49.737Z,11.84
2023-11-01T16:36:16.664Z,11.75
2023-11-01T16:38:43.399Z,11.71
2023-11-01T16:41:09.980Z,11.72
2023-11-01T16:43:39.863Z,11.68
2023-11-01T16:46:07.606Z,11.65
2023-11-01T16:48:34.245Z,11.63
2023-11-01T16:51:00.836Z,11.59
2023-11-01T16:53:28.041Z,11.52
2023-11-01T16:55:54.850Z,11.53
2023-11-01T16:58:23.624Z,11.51
2023-11-01T17:00:50.064Z,11.46
2023-11-01T17:03:16.666Z,11.41
2023-11-01T17:05:45.875Z,11.39
2023-11-01T17:08:12.665Z,11.40
2023-11-01T17:10:39.127Z,11.41
2023-11-01T17:13:05.571Z,11.39
2023-11-01T17:15:32.139Z,11.37
2023-11-01T17:17:58.675Z,11.38
2023-11-01T17:20:26.956Z,11.49
2023-11-01T17:22:56.796Z,11.52
2023-11-01T17:25:32.342Z,11.55
2023-11-01T17:27:59.800Z,11.55
2023-11-01T17:30:28.064Z,11.54
2023-11-01T17:32:57.268Z,11.55
2023-11-01T17:35:23.928Z,11.51
2023-11-01T17:37:51.504Z,11.48
2023-11-01T17:40:18.207Z,11.48
2023-11-01T17:42:45.033Z,11.45
2023-11-01T17:45:14.016Z,11.44
2023-11-01T17:47:44.511Z,11.45
2023-11-01T17:50:11.106Z,11.46
2023-11-01T17:52:41.609Z,11.52
2023-11-01T17:55:10.504Z,11.47
2023-11-01T17:57:38.621Z,11.41
2023-11-01T18:00:06.416Z,11.32
2023-11-01T18:02:33.156Z,11.46
2023-11-01T18:05:04.361Z,11.55
2023-11-01T18:07:30.801Z,11.50
2023-11-01T18:10:01.290Z,11.55
2023-11-01T18:12:30.718Z,11.57
2023-11-01T18:14:57.676Z,11.57
2023-11-01T18:17:24.132Z,11.55
2023-11-01T18:19:51.032Z,11.51
2023-11-01T18:22:41.719Z,11.48
2023-11-01T18:25:26.925Z,11.47
2023-11-01T18:27:53.949Z,11.47
2023-11-01T18:30:21.297Z,11.41
2023-11-01T18:32:47.740Z,11.48
2023-11-01T18:35:14.540Z,11.41
2023-11-01T18:37:40.992Z,11.64
2023-11-01T18:40:09.574Z,11.59
2023-11-01T18:42:48.052Z,11.71
2023-11-01T18:45:15.154Z,11.58
2023-11-01T18:47:41.788Z,11.47
2023-11-01T18:50:13.361Z,11.57
2023-11-01T18:52:40.396Z,11.59
2023-11-01T18:55:10.037Z,11.67
2023-11-01T18:57:36.567Z,12.01
2023-11-01T19:00:07.917Z,12.01
2023-11-01T19:02:35.136Z,12.12
2023-11-01T19:05:05.198Z,12.29
2023-11-01T19:07:34.427Z,12.34
2023-11-01T19:10:01.670Z,12.35
2023-11-01T19:12:36.753Z,12.24
2023-11-01T19:15:07.323Z,12.22
2023-11-01T19:17:34.238Z,12.17
2023-11-01T19:20:00.681Z,12.23
2023-11-01T19:22:27.168Z,12.11
2023-11-01T19:24:54.070Z,12.20
2023-11-01T19:27:24.049Z,12.09
2023-11-01T19:29:53.961Z,12.13
2023-11-01T19:32:20.534Z,12.09
2023-11-01T19:34:47.209Z,12.18
2023-11-01T19:37:14.252Z,12.24
2023-11-01T19:39:43.385Z,12.29
2023-11-01T19:42:11.468Z,12.10
2023-11-01T19:44:39.300Z,12.23
2023-11-01T19:47:06.278Z,12.08
2023-11-01T19:49:32.876Z,11.96
2023-11-01T19:51:59.518Z,11.75
2023-11-01T19:54:26.236Z,11.61
2023-11-01T19:56:55.156Z,11.78
2023-11-01T19:59:22.164Z,11.69
2023-11-01T20:01:49.023Z,11.52
2023-11-01T20:04:15.941Z,11.56
2023-11-01T20:06:42.589Z,11.70
2023-11-01T20:09:09.404Z,11.60
2023-11-01T20:11:35.850Z,11.56
2023-11-01T20:14:04.930Z,11.56
2023-11-01T20:16:31.527Z,11.36
2023-11-01T20:19:00.207Z,11.42
2023-11-01T20:21:27.095Z,11.22
2023-11-01T20:23:53.550Z,11.17
2023-11-01T20:26:20.439Z,11.12
2023-11-01T20:28:47.647Z,11.16
2023-11-01T20:31:14.376Z,11.04
2023-11-01T20:33:40.928Z,10.85
2023-11-01T20:36:07.905Z,10.81
2023-11-01T20:38:34.452Z,10.68
2023-11-01T20:41:00.895Z,10.63
2023-11-01T20:43:31.338Z,10.50
2023-11-01T20:45:57.894Z,10.41
2023-11-01T20:48:24.565Z,10.39
2023-11-01T20:50:51.230Z,10.43
2023-11-01T20:53:17.985Z,10.30
2023-11-01T20:55:45.542Z,10.33
2023-11-01T20:58:12.657Z,10.04
2023-11-01T21:00:39.148Z,9.91
2023-11-01T21:03:07.082Z,9.84
2023-11-01T21:05:33.544Z,9.87
2023-11-01T21:08:02.279Z,9.78
2023-11-01T21:10:31.553Z,9.75
2023-11-01T21:12:58.884Z,9.69
2023-11-01T21:15:25.353Z,9.77
2023-11-01T21:17:52.873Z,9.67
2023-11-01T21:20:19.520Z,9.57
2023-11-01T21:22:46.441Z,9.31
2023-11-01T21:25:12.903Z,9.11
2023-11-01T21:27:39.469Z,9.22
2023-11-01T21:30:07.812Z,8.96
2023-11-01T21:32:34.450Z,8.75
2023-11-01T21:35:01.702Z,8.83
2023-11-01T21:37:28.310Z,8.89
2023-11-01T21:39:54.877Z,8.73
2023-11-01T21:42:23.755Z,8.56
2023-11-01T21:44:50.609Z,8.39
2023-11-01T21:47:24.357Z,8.31
2023-11-01T21:49:50.816Z,8.36
2023-11-01T21:52:22.406Z,8.37
2023-11-01T21:54:51.193Z,8.29
2023-11-01T21:57:24.246Z,8.12
2023-11-01T21:59:50.725Z,8.12
2023-11-01T22:02:35.751Z,8.19
2023-11-01T22:05:04.924Z,8.10
2023-11-01T22:07:31.520Z,7.98
2023-11-01T22:10:05.429Z,7.91
2023-11-01T22:12:34.720Z,7.81
2023-11-01T22:15:02.200Z,7.75
2023-11-01T22:17:37.516Z,7.73
2023-11-01T22:20:07.753Z,7.59
2023-11-01T22:22:34.529Z,7.64
2023-11-01T22:25:01.282Z,7.78
2023-11-01T22:27:43.815Z,7.79
2023-11-01T22:30:12.652Z,7.57
2023-11-01T22:32:39.444Z,7.48
2023-11-01T22:35:08.568Z,7.36
2023-11-01T22:37:35.971Z,7.29
2023-11-01T22:40:06.631Z,7.21
2023-11-01T22:42:35.979Z,7.14
2023-11-01T22:45:03.437Z,7.06
2023-11-01T22:47:30.576Z,7.09
2023-11-01T22:49:57.121Z,6.96
2023-11-01T22:52:24.850Z,6.90
2023-11-01T22:54:51.636Z,6.99
2023-11-01T22:57:18.599Z,6.91
2023-11-01T22:59:45.210Z,6.75
2023-11-01T23:02:16.335Z,6.74
2023-11-01T23:04:43.987Z,6.73
2023-11-01T23:07:11.092Z,6.77
2023-11-01T23:09:37.690Z,6.87
2023-11-01T23:12:04.877Z,6.78
2023-11-01T23:14:31.767Z,6.81
2023-11-01T23:16:58.210Z,6.82
2023-11-01T23:19:24.807Z,6.67
2023-11-01T23:21:51.511Z,6.51
2023-11-01T23:24:19.959Z,6.56
2023-11-01T23:26:53.495Z,6.54
2023-11-01T23:29:31.319Z,6.54
2023-11-01T23:32:04.034Z,6.52
2023-11-01T23:34:42.661Z,6.48
2023-11-01T23:37:21.277Z,6.43
2023-11-01T23:39:50.809Z,6.42
2023-11-01T23:42:18.789Z,6.45
2023-11-01T23:44:46.231Z,6.39
2023-11-01T23:47:51.983Z,6.28
2023-11-01T23:50:31.894Z,6.23
2023-11-01T23:53:06.776Z,6.20
2023-11-01T23:55:33.852Z,6.18
2023-11-01T23:58:01.464Z,6.15
